Terminal Aerodrome Forecast
Issued by NWS

Home | Current Version | Previous Version | Text Only | Print | Product List | Glossary On
Versions: 1 2 3 4 5 6 7 8 9 10 11 12 13 14
065
FTPA31 PHFO 161731
TAFHOG
TAF
PHOG 161731Z 1618/1718 13004KT P6SM FEW035
     FM162100 06012KT P6SM FEW035 SCT250
     FM170900 09006KT P6SM FEW035 SCT250
      AMD LTD TO VIS AND WIND 1709/1716=

USA.gov is the U.S. government's official web portal to all federal, state and local government web resources and services.